Terminal Aerodrome Forecast
Issued by NWS

Home | Current Version | Previous Version | Text Only | Print | Product List | Glossary On
Versions: 1 2 3 4 5 6 7 8 9 10 11 12 13 14 15
000
FTUS45 KPSR 061335 AAB
TAFSDL
TAF AMD
KSDL 061335Z 0614/0712 VRB03KT P6SM SCT110
     FM061500 17008KT P6SM FEW050 SCT070
     FM061800 21012G20KT P6SM SCT060 BKN080
     FM070200 24010KT P6SM -SHRA SCT060 BKN080
     FM070600 22005KT P6SM SCT060
     FM071000 VRB03KT P6SM FEW060 SCT200=

USA.gov is the U.S. government's official web portal to all federal, state and local government web resources and services.